createdAt,value
2022-11-05T00:00:37.934Z,9.80
2022-11-05T00:03:23.683Z,9.80
2022-11-05T00:06:14.058Z,9.80
2022-11-05T00:09:00.942Z,9.80
2022-11-05T00:11:52.839Z,9.80
2022-11-05T00:14:38.935Z,9.70
2022-11-05T00:17:05.808Z,9.80
2022-11-05T00:19:35.070Z,9.80
2022-11-05T00:22:20.655Z,9.70
2022-11-05T00:25:06.047Z,9.70
2022-11-05T00:27:34.561Z,9.70
2022-11-05T00:30:01.809Z,9.80
2022-11-05T00:32:32.946Z,9.70
2022-11-05T00:35:00.493Z,9.70
2022-11-05T00:37:28.334Z,9.80
2022-11-05T00:39:58.857Z,9.70
2022-11-05T00:42:44.647Z,9.70
2022-11-05T00:45:11.666Z,9.70
2022-11-05T00:47:58.013Z,9.70
2022-11-05T00:50:26.146Z,9.70
2022-11-05T00:52:58.456Z,9.70
2022-11-05T00:55:34.903Z,9.80
2022-11-05T00:58:05.910Z,9.70
2022-11-05T01:00:38.588Z,9.80
2022-11-05T01:03:08.946Z,9.80
2022-11-05T01:05:46.212Z,9.80
2022-11-05T01:08:14.991Z,9.80
2022-11-05T01:10:48.077Z,9.80
2022-11-05T01:13:19.455Z,9.80
2022-11-05T01:15:47.511Z,9.80
2022-11-05T01:18:14.662Z,9.80
2022-11-05T01:20:41.662Z,9.80
2022-11-05T01:23:13.189Z,9.80
2022-11-05T01:25:41.926Z,9.80
2022-11-05T01:28:09.916Z,9.80
2022-11-05T01:30:37.458Z,9.80
2022-11-05T01:33:08.293Z,9.80
2022-11-05T01:35:35.517Z,9.80
2022-11-05T01:38:04.127Z,9.80
2022-11-05T01:40:31.144Z,9.80
2022-11-05T01:42:58.223Z,9.80
2022-11-05T01:45:28.870Z,9.80
2022-11-05T01:48:19.960Z,9.80
2022-11-05T01:51:03.683Z,9.80
2022-11-05T01:53:36.552Z,9.80
2022-11-05T01:56:12.365Z,9.80
2022-11-05T01:58:59.970Z,9.80
2022-11-05T02:01:27.644Z,9.70
2022-11-05T02:04:01.837Z,9.70
2022-11-05T02:06:32.893Z,9.70
2022-11-05T02:09:12.703Z,9.70
2022-11-05T02:11:39.843Z,9.60
2022-11-05T02:14:08.932Z,9.70
2022-11-05T02:16:39.114Z,9.70
2022-11-05T02:19:43.902Z,9.70
2022-11-05T02:22:47.993Z,9.60
2022-11-05T02:25:48.783Z,9.70
2022-11-05T02:28:31.618Z,9.60
2022-11-05T02:31:29.193Z,9.70
2022-11-05T02:34:11.272Z,9.70
2022-11-05T02:37:00.677Z,9.60
2022-11-05T02:40:07.914Z,9.60
2022-11-05T02:42:44.588Z,9.60
2022-11-05T02:45:14.681Z,9.60
2022-11-05T02:48:16.696Z,9.60
2022-11-05T02:51:22.232Z,9.60
2022-11-05T02:53:59.465Z,9.60
2022-11-05T02:56:32.454Z,9.60
2022-11-05T02:58:59.554Z,9.60
2022-11-05T03:01:26.611Z,9.60
2022-11-05T03:04:01.000Z,9.60
2022-11-05T03:06:53.742Z,9.60
2022-11-05T03:09:45.497Z,9.60
2022-11-05T03:12:33.661Z,9.50
2022-11-05T03:15:09.790Z,9.50
2022-11-05T03:17:53.009Z,9.60
2022-11-05T03:20:23.535Z,9.60
2022-11-05T03:23:27.420Z,9.60
2022-11-05T03:26:30.093Z,9.50
2022-11-05T03:29:06.763Z,9.60
2022-11-05T03:31:36.534Z,9.60
2022-11-05T03:34:05.865Z,9.60
2022-11-05T03:36:41.309Z,9.60
2022-11-05T03:39:17.356Z,9.60
2022-11-05T03:41:49.306Z,9.60
2022-11-05T03:44:20.300Z,9.60
2022-11-05T03:46:50.042Z,9.60
2022-11-05T03:49:21.623Z,9.60
2022-11-05T03:52:09.655Z,9.60
2022-11-05T03:54:36.974Z,9.60
2022-11-05T03:57:15.059Z,9.70
2022-11-05T03:59:45.859Z,9.60
2022-11-05T04:02:15.170Z,9.70
2022-11-05T04:04:42.235Z,9.70
2022-11-05T04:07:29.574Z,9.70
2022-11-05T04:10:15.110Z,9.70
2022-11-05T04:13:11.742Z,9.70
2022-11-05T04:15:57.901Z,9.70
2022-11-05T04:18:24.829Z,9.70
2022-11-05T04:21:10.492Z,9.70
2022-11-05T04:23:56.187Z,9.70
2022-11-05T04:26:23.707Z,9.70
2022-11-05T04:29:10.216Z,9.70
2022-11-05T04:31:38.115Z,9.70
2022-11-05T04:34:05.194Z,9.70
2022-11-05T04:36:32.179Z,9.70
2022-11-05T04:38:59.120Z,9.60
2022-11-05T04:41:26.042Z,9.70
2022-11-05T04:43:53.568Z,9.70
2022-11-05T04:46:20.522Z,9.70
2022-11-05T04:48:47.689Z,9.70
2022-11-05T04:51:14.574Z,9.60
2022-11-05T04:53:41.468Z,9.70
2022-11-05T04:56:12.685Z,9.70
2022-11-05T04:58:43.450Z,9.70
2022-11-05T05:01:21.919Z,9.60
2022-11-05T05:03:50.773Z,9.60
2022-11-05T05:06:18.728Z,9.60
2022-11-05T05:08:47.917Z,9.60
2022-11-05T05:11:17.686Z,9.60
2022-11-05T05:13:45.292Z,9.70
2022-11-05T05:16:22.387Z,9.70
2022-11-05T05:18:49.707Z,9.70
2022-11-05T05:21:36.838Z,9.70
2022-11-05T05:24:09.643Z,9.70
2022-11-05T05:26:45.004Z,9.70
2022-11-05T05:29:12.383Z,9.70
2022-11-05T05:31:39.853Z,9.60
2022-11-05T05:34:08.217Z,9.60
2022-11-05T05:36:35.241Z,9.60
2022-11-05T05:39:08.623Z,9.60
2022-11-05T05:41:35.827Z,9.60
2022-11-05T05:44:06.495Z,9.60
2022-11-05T05:46:33.757Z,9.60
2022-11-05T05:49:00.885Z,9.60
2022-11-05T05:51:27.822Z,9.60
2022-11-05T05:53:55.093Z,9.60
2022-11-05T05:56:22.249Z,9.60
2022-11-05T05:58:49.468Z,9.60
2022-11-05T06:01:19.702Z,9.60
2022-11-05T06:03:48.600Z,9.60
2022-11-05T06:06:19.843Z,9.60
2022-11-05T06:08:47.555Z,9.60
2022-11-05T06:11:14.776Z,9.50
2022-11-05T06:13:41.696Z,9.60
2022-11-05T06:16:09.569Z,9.60
2022-11-05T06:18:36.966Z,9.60
2022-11-05T06:21:08.625Z,9.60
2022-11-05T06:23:38.095Z,9.60
2022-11-05T06:26:07.323Z,9.60
2022-11-05T06:28:34.837Z,9.60
2022-11-05T06:31:02.265Z,9.50
2022-11-05T06:33:29.414Z,9.50
2022-11-05T06:36:00.262Z,9.50
2022-11-05T06:38:27.997Z,9.50
2022-11-05T06:40:55.134Z,9.50
2022-11-05T06:43:21.995Z,9.50
2022-11-05T06:45:49.494Z,9.60
2022-11-05T06:48:16.369Z,9.50
2022-11-05T06:51:11.297Z,9.50
2022-11-05T06:53:38.166Z,9.50
2022-11-05T06:56:06.978Z,9.50
2022-11-05T06:58:34.678Z,9.50
2022-11-05T07:01:08.613Z,9.50
2022-11-05T07:03:39.459Z,9.50
2022-11-05T07:06:07.432Z,9.50
2022-11-05T07:08:36.099Z,9.50
2022-11-05T07:11:03.826Z,9.50
2022-11-05T07:13:30.933Z,9.50
2022-11-05T07:15:58.083Z,9.50
2022-11-05T07:18:26.709Z,9.60
2022-11-05T07:20:53.569Z,9.50
2022-11-05T07:23:22.906Z,9.50
2022-11-05T07:25:50.101Z,9.60
2022-11-05T07:28:17.158Z,9.60
2022-11-05T07:30:44.236Z,9.60
2022-11-05T07:33:11.738Z,9.60
2022-11-05T07:35:39.009Z,9.50
2022-11-05T07:38:10.258Z,9.50
2022-11-05T07:40:37.815Z,9.50
2022-11-05T07:43:04.772Z,9.60
2022-11-05T07:45:32.210Z,9.50
2022-11-05T07:48:01.424Z,9.50
2022-11-05T07:50:34.766Z,9.50
2022-11-05T07:53:13.629Z,9.60
2022-11-05T07:55:41.278Z,9.50
2022-11-05T07:58:08.360Z,9.60
2022-11-05T08:00:35.935Z,9.50
2022-11-05T08:03:08.399Z,9.50
2022-11-05T08:05:40.729Z,9.50
2022-11-05T08:08:14.774Z,9.60
2022-11-05T08:10:42.247Z,9.60
2022-11-05T08:13:13.549Z,9.60
2022-11-05T08:15:41.105Z,9.50
2022-11-05T08:18:17.087Z,9.60
2022-11-05T08:20:45.080Z,9.50
2022-11-05T08:23:14.405Z,9.50
2022-11-05T08:25:42.206Z,9.60
2022-11-05T08:28:13.152Z,9.50
2022-11-05T08:30:43.465Z,9.60
2022-11-05T08:33:13.268Z,9.60
2022-11-05T08:35:42.080Z,9.50
2022-11-05T08:38:13.951Z,9.50
2022-11-05T08:40:42.118Z,9.60
2022-11-05T08:43:11.712Z,9.60
2022-11-05T08:45:39.228Z,9.60
2022-11-05T08:48:07.748Z,9.50
2022-11-05T08:50:35.917Z,9.50
2022-11-05T08:53:03.485Z,9.60
2022-11-05T08:55:30.964Z,9.60
2022-11-05T08:57:58.930Z,9.60
2022-11-05T09:00:28.210Z,9.60
2022-11-05T09:02:58.137Z,9.60
2022-11-05T09:05:25.047Z,9.60
2022-11-05T09:07:55.271Z,9.50
2022-11-05T09:10:26.836Z,9.60
2022-11-05T09:12:55.154Z,9.60
2022-11-05T09:15:23.479Z,9.60
2022-11-05T09:17:50.864Z,9.50
2022-11-05T09:20:17.844Z,9.50
2022-11-05T09:22:48.508Z,9.50
2022-11-05T09:25:16.242Z,9.50
2022-11-05T09:27:43.864Z,9.50
2022-11-05T09:30:12.813Z,9.50
2022-11-05T09:32:39.981Z,9.50
2022-11-05T09:35:07.866Z,9.50
2022-11-05T09:37:36.427Z,9.40
2022-11-05T09:40:04.132Z,9.40
2022-11-05T09:42:40.697Z,9.40
2022-11-05T09:45:18.746Z,9.40
2022-11-05T09:47:55.794Z,9.40
2022-11-05T09:50:41.972Z,9.50
2022-11-05T09:53:16.052Z,9.40
2022-11-05T09:55:46.751Z,9.40
2022-11-05T09:58:29.032Z,9.30
2022-11-05T10:00:57.220Z,9.20
2022-11-05T10:03:25.697Z,9.10
2022-11-05T10:05:54.774Z,9.20
2022-11-05T10:08:29.033Z,9.10
2022-11-05T10:11:03.892Z,9.10
2022-11-05T10:13:50.826Z,9.10
2022-11-05T10:16:19.774Z,9.00
2022-11-05T10:18:52.361Z,8.90
2022-11-05T10:21:37.679Z,8.90
2022-11-05T10:24:28.580Z,8.80
2022-11-05T10:26:55.945Z,8.70
2022-11-05T10:29:32.853Z,8.70
2022-11-05T10:32:03.601Z,8.60
2022-11-05T10:34:34.675Z,8.50
2022-11-05T10:37:01.984Z,8.50
2022-11-05T10:39:32.225Z,8.50
2022-11-05T10:42:18.115Z,8.50
2022-11-05T10:44:48.682Z,8.40
2022-11-05T10:47:46.592Z,8.40
2022-11-05T10:50:18.692Z,8.40
2022-11-05T10:53:02.453Z,8.40
2022-11-05T10:55:35.820Z,8.40
2022-11-05T10:58:17.604Z,8.40
2022-11-05T11:01:08.038Z,8.40
2022-11-05T11:03:46.950Z,8.30
2022-11-05T11:06:26.341Z,8.40
2022-11-05T11:08:59.953Z,8.40
2022-11-05T11:11:34.332Z,8.30
2022-11-05T11:14:03.212Z,8.40
2022-11-05T11:16:39.312Z,8.40
2022-11-05T11:19:29.826Z,8.40
2022-11-05T11:22:05.674Z,8.30
2022-11-05T11:24:39.953Z,8.40
2022-11-05T11:27:22.724Z,8.40
2022-11-05T11:30:07.076Z,8.40
2022-11-05T11:32:38.465Z,8.40
2022-11-05T11:35:09.055Z,8.30
2022-11-05T11:37:42.246Z,8.30
2022-11-05T11:40:19.638Z,8.30
2022-11-05T11:42:51.678Z,8.30
2022-11-05T11:45:30.027Z,8.30
2022-11-05T11:48:00.232Z,8.30
2022-11-05T11:50:42.701Z,8.30
2022-11-05T11:53:21.552Z,8.30
2022-11-05T11:56:19.346Z,8.30
2022-11-05T11:58:55.218Z,8.40
2022-11-05T12:01:45.141Z,8.40
2022-11-05T12:04:34.071Z,8.40
2022-11-05T12:07:19.080Z,8.30
2022-11-05T12:10:11.613Z,8.30
2022-11-05T12:13:05.202Z,8.50
2022-11-05T12:16:08.793Z,8.40
2022-11-05T12:18:39.237Z,8.40
2022-11-05T12:21:12.745Z,8.50
2022-11-05T12:24:03.939Z,8.50
2022-11-05T12:26:49.117Z,8.50
2022-11-05T12:29:52.197Z,8.50
2022-11-05T12:32:31.053Z,8.60
2022-11-05T12:35:35.782Z,8.60
2022-11-05T12:38:19.120Z,8.70
2022-11-05T12:41:05.288Z,8.60
2022-11-05T12:44:05.730Z,8.70
2022-11-05T12:46:42.973Z,8.70
2022-11-05T12:49:37.662Z,8.70
2022-11-05T12:52:24.798Z,8.60
2022-11-05T12:55:13.461Z,8.60
2022-11-05T12:57:43.153Z,8.60
2022-11-05T13:00:24.857Z,8.60
2022-11-05T13:03:07.229Z,8.70
2022-11-05T13:06:01.492Z,8.70
2022-11-05T13:08:48.667Z,8.70
2022-11-05T13:11:24.701Z,8.70
2022-11-05T13:14:01.653Z,8.80
2022-11-05T13:16:39.620Z,8.70
2022-11-05T13:19:13.292Z,8.80
2022-11-05T13:21:42.617Z,8.80
2022-11-05T13:24:18.631Z,8.70
2022-11-05T13:27:12.335Z,8.80
2022-11-05T13:29:44.349Z,8.80
2022-11-05T13:32:29.440Z,8.80
2022-11-05T13:34:57.653Z,8.70
2022-11-05T13:37:49.968Z,8.70
2022-11-05T13:40:22.648Z,8.70
2022-11-05T13:43:14.615Z,8.70
2022-11-05T13:46:22.966Z,8.70
2022-11-05T13:49:25.396Z,8.70
2022-11-05T13:52:01.628Z,8.60
2022-11-05T13:54:55.694Z,8.60
2022-11-05T13:57:37.715Z,8.60
2022-11-05T14:00:10.058Z,8.60
2022-11-05T14:02:38.985Z,8.60
2022-11-05T14:05:07.982Z,8.60
2022-11-05T14:07:45.634Z,8.60
2022-11-05T14:10:24.254Z,8.60
2022-11-05T14:12:54.999Z,8.60
2022-11-05T14:15:25.705Z,8.60
2022-11-05T14:18:06.571Z,8.70
2022-11-05T14:20:36.504Z,8.70
2022-11-05T14:23:31.021Z,8.70
2022-11-05T14:26:17.229Z,8.80
2022-11-05T14:28:47.069Z,8.80
2022-11-05T14:31:19.813Z,8.70
2022-11-05T14:34:05.038Z,8.80
2022-11-05T14:36:35.749Z,8.80
2022-11-05T14:39:30.937Z,8.80
2022-11-05T14:42:00.618Z,8.70
2022-11-05T14:44:30.205Z,8.70
2022-11-05T14:47:04.866Z,8.70
2022-11-05T14:49:53.281Z,8.70
2022-11-05T14:52:21.023Z,8.80
2022-11-05T14:54:52.506Z,8.80
2022-11-05T14:57:42.068Z,8.80
2022-11-05T15:00:27.962Z,8.80
2022-11-05T15:03:07.744Z,8.80
2022-11-05T15:05:39.150Z,8.80
2022-11-05T15:08:27.501Z,8.80
2022-11-05T15:11:02.916Z,8.80
2022-11-05T15:13:40.642Z,8.80
2022-11-05T15:16:07.948Z,8.80
2022-11-05T15:18:45.694Z,8.90
2022-11-05T15:21:17.586Z,8.90
2022-11-05T15:23:47.582Z,8.90
2022-11-05T15:26:26.621Z,8.90
2022-11-05T15:28:55.509Z,8.80
2022-11-05T15:31:31.135Z,8.80
2022-11-05T15:34:21.869Z,8.80
2022-11-05T15:37:11.754Z,8.80
2022-11-05T15:39:41.543Z,8.80
2022-11-05T15:42:16.502Z,8.80
2022-11-05T15:44:46.279Z,8.80
2022-11-05T15:47:24.496Z,8.90
2022-11-05T15:50:14.005Z,8.90
2022-11-05T15:52:52.833Z,8.90
2022-11-05T15:55:25.549Z,8.90
2022-11-05T15:58:05.684Z,9.00
2022-11-05T16:00:35.547Z,9.00
2022-11-05T16:03:28.510Z,9.00
2022-11-05T16:05:56.284Z,9.00
2022-11-05T16:08:29.070Z,9.00
2022-11-05T16:11:01.452Z,9.00
2022-11-05T16:13:33.085Z,9.00
2022-11-05T16:16:03.634Z,9.00
2022-11-05T16:18:35.993Z,8.90
2022-11-05T16:21:19.014Z,8.90
2022-11-05T16:23:59.520Z,8.90
2022-11-05T16:29:39.443Z,8.90
2022-11-05T16:32:33.860Z,8.90
2022-11-05T16:35:07.073Z,8.90
2022-11-05T16:37:46.409Z,8.90
2022-11-05T16:40:22.055Z,8.90
2022-11-05T16:42:51.630Z,8.90
2022-11-05T16:45:24.657Z,8.80
2022-11-05T16:47:52.326Z,8.80
2022-11-05T16:50:25.479Z,8.70
2022-11-05T16:52:53.779Z,8.70
2022-11-05T16:55:21.132Z,8.70
2022-11-05T16:57:55.623Z,8.70
2022-11-05T17:00:24.333Z,8.70
2022-11-05T17:02:52.033Z,8.70
2022-11-05T17:05:28.777Z,8.70
2022-11-05T17:07:56.719Z,8.70
2022-11-05T17:10:25.539Z,8.60
2022-11-05T17:12:52.879Z,8.60
2022-11-05T17:15:29.368Z,8.60
2022-11-05T17:17:56.928Z,8.50
2022-11-05T17:20:36.503Z,8.60
2022-11-05T17:23:06.472Z,8.60
2022-11-05T17:25:34.797Z,8.60
2022-11-05T17:28:02.502Z,8.60
2022-11-05T17:30:29.616Z,8.60
2022-11-05T17:32:56.958Z,8.50
2022-11-05T17:35:27.850Z,8.50
2022-11-05T17:37:54.900Z,8.50
2022-11-05T17:40:23.530Z,8.40
2022-11-05T17:42:51.723Z,8.40
2022-11-05T17:45:20.950Z,8.40
2022-11-05T17:47:48.016Z,8.40
2022-11-05T17:50:16.308Z,8.40
2022-11-05T17:52:49.606Z,8.30
2022-11-05T17:55:19.524Z,8.30
2022-11-05T17:57:52.108Z,8.40
2022-11-05T18:00:21.986Z,8.40
2022-11-05T18:02:49.803Z,8.40
2022-11-05T18:05:20.885Z,8.40
2022-11-05T18:07:49.057Z,8.30
2022-11-05T18:10:16.615Z,8.30
2022-11-05T18:12:44.565Z,8.30
2022-11-05T18:15:13.419Z,8.30
2022-11-05T18:17:41.148Z,8.20
2022-11-05T18:20:15.727Z,8.30
2022-11-05T18:22:45.751Z,8.30
2022-11-05T18:25:14.146Z,8.30
2022-11-05T18:27:42.987Z,8.30
2022-11-05T18:30:11.210Z,8.20
2022-11-05T18:32:39.009Z,8.20
2022-11-05T18:35:07.443Z,8.20
2022-11-05T18:37:34.610Z,8.30
2022-11-05T18:40:03.827Z,8.20
2022-11-05T18:42:33.334Z,8.20
2022-11-05T18:45:00.288Z,8.20
2022-11-05T18:47:27.388Z,8.20
2022-11-05T18:49:54.265Z,8.20
2022-11-05T18:52:25.116Z,8.20
2022-11-05T18:54:52.311Z,8.10
2022-11-05T18:57:21.897Z,8.10
2022-11-05T18:59:48.916Z,8.10
2022-11-05T19:02:16.151Z,8.10
2022-11-05T19:05:06.644Z,8.10
2022-11-05T19:07:32.616Z,8.10
2022-11-05T19:09:59.471Z,8.10
2022-11-05T19:12:26.508Z,8.10
2022-11-05T19:14:57.951Z,8.10
2022-11-05T19:17:28.097Z,8.00
2022-11-05T19:19:55.649Z,8.00
2022-11-05T19:22:22.598Z,8.00
2022-11-05T19:24:49.536Z,8.00
2022-11-05T19:27:17.021Z,8.00
2022-11-05T19:29:43.897Z,8.00
2022-11-05T19:32:11.020Z,7.90
2022-11-05T19:34:38.275Z,7.90
2022-11-05T19:37:08.397Z,7.90
2022-11-05T19:39:36.462Z,7.90
2022-11-05T19:42:04.730Z,7.80
2022-11-05T19:44:35.667Z,7.90
2022-11-05T19:47:02.768Z,7.90
2022-11-05T19:49:30.788Z,7.80
2022-11-05T19:51:57.898Z,7.90
2022-11-05T19:54:24.854Z,7.80
2022-11-05T19:56:52.918Z,7.80
2022-11-05T19:59:19.821Z,7.80
2022-11-05T20:01:47.062Z,7.90
2022-11-05T20:04:20.138Z,7.90
2022-11-05T20:06:48.646Z,7.90
2022-11-05T20:09:21.513Z,7.90
2022-11-05T20:11:50.296Z,7.90
2022-11-05T20:14:17.618Z,7.90
2022-11-05T20:16:47.109Z,7.90
2022-11-05T20:19:16.924Z,7.80
2022-11-05T20:21:44.591Z,7.80
2022-11-05T20:24:15.256Z,7.90
2022-11-05T20:26:48.873Z,7.90
2022-11-05T20:29:16.026Z,7.90
2022-11-05T20:31:43.979Z,7.90
2022-11-05T20:34:11.084Z,7.90
2022-11-05T20:36:39.658Z,7.90
2022-11-05T20:39:06.561Z,8.00
2022-11-05T20:41:33.976Z,8.00
2022-11-05T20:44:00.868Z,8.00
2022-11-05T20:46:28.332Z,8.00
2022-11-05T20:48:55.860Z,8.00
2022-11-05T20:51:24.549Z,8.00
2022-11-05T20:53:56.150Z,8.00
2022-11-05T20:56:30.184Z,8.00
2022-11-05T20:58:58.837Z,8.00
2022-11-05T21:01:27.795Z,7.90
2022-11-05T21:03:54.794Z,7.90
2022-11-05T21:06:22.376Z,7.90
2022-11-05T21:08:50.859Z,7.90
2022-11-05T21:11:18.833Z,7.90
2022-11-05T21:13:46.814Z,7.90
2022-11-05T21:16:18.170Z,7.90
2022-11-05T21:18:46.392Z,7.90
2022-11-05T21:21:17.013Z,7.80
2022-11-05T21:23:44.036Z,7.80
2022-11-05T21:26:13.371Z,7.80
2022-11-05T21:28:41.639Z,7.90
2022-11-05T21:31:09.420Z,7.90
2022-11-05T21:33:37.474Z,7.80
2022-11-05T21:36:10.004Z,7.80
2022-11-05T21:38:37.504Z,7.80
2022-11-05T21:41:05.572Z,7.80
2022-11-05T21:43:34.564Z,7.70
2022-11-05T21:46:03.499Z,7.70
2022-11-05T21:48:30.854Z,7.70
2022-11-05T21:51:16.391Z,7.70
2022-11-05T21:54:03.100Z,7.70
2022-11-05T21:56:49.772Z,7.70
2022-11-05T21:59:40.443Z,7.70
2022-11-05T22:02:20.617Z,7.70
2022-11-05T22:04:51.412Z,7.70
2022-11-05T22:07:21.225Z,7.70
2022-11-05T22:09:48.468Z,7.70
2022-11-05T22:12:16.058Z,7.70
2022-11-05T22:14:44.410Z,7.70
2022-11-05T22:17:12.868Z,7.70
2022-11-05T22:19:40.994Z,7.70
2022-11-05T22:22:08.383Z,7.70
2022-11-05T22:24:35.808Z,7.70
2022-11-05T22:27:04.910Z,7.70
2022-11-05T22:29:33.562Z,7.70
2022-11-05T22:32:00.747Z,7.80
2022-11-05T22:34:37.227Z,7.70
2022-11-05T22:37:04.854Z,7.70
2022-11-05T22:39:31.851Z,7.80
2022-11-05T22:42:03.024Z,7.80
2022-11-05T22:44:32.912Z,7.80
2022-11-05T22:47:00.025Z,7.80
2022-11-05T22:49:27.963Z,7.80
2022-11-05T22:51:59.517Z,7.80
2022-11-05T22:54:26.628Z,7.80
2022-11-05T22:56:53.918Z,7.90
2022-11-05T22:59:24.093Z,7.90
2022-11-05T23:01:52.499Z,7.90
2022-11-05T23:04:19.420Z,7.90
2022-11-05T23:07:05.322Z,7.90
2022-11-05T23:09:55.345Z,7.90
2022-11-05T23:12:25.144Z,8.00
2022-11-05T23:14:52.883Z,8.00
2022-11-05T23:17:44.883Z,8.00
2022-11-05T23:20:39.436Z,8.00
2022-11-05T23:23:29.921Z,8.00
2022-11-05T23:26:20.809Z,8.00
2022-11-05T23:28:47.842Z,8.10
2022-11-05T23:31:33.833Z,8.10
2022-11-05T23:34:01.079Z,8.10
2022-11-05T23:36:46.408Z,8.10
2022-11-05T23:39:13.509Z,8.10
2022-11-05T23:42:02.391Z,8.10
2022-11-05T23:44:47.961Z,8.10
2022-11-05T23:47:35.191Z,8.10
2022-11-05T23:50:02.196Z,8.10
2022-11-05T23:52:31.373Z,8.10
2022-11-05T23:54:58.306Z,8.20
2022-11-05T23:57:25.317Z,8.20
2022-11-05T23:59:52.341Z,8.20
